Satellite Precipitation Estimates (TXUS20 KWBC)
Issued by NWS

Home | Current Version | Previous Version | Text Only | Print | Product List | Glossary On
Versions: 1 2
000
SPTD31 TTPP 092230
SPECI
TTPP 092228Z 12005KT 5000NE -SHRA VCSH SCT014TCU SCT036 25/24 Q1014
TEMPO SHRA TCU-NE=



USA.gov is the U.S. government's official web portal to all federal, state and local government web resources and services.